Time;durP1;ratioP1;P1;durP2;ratioP2;P2;SDS_P1;SDS_P2;PMS_P1;PMS_P2;Temp;Humidity;BMP_temperature;BMP_pressure;BME280_temperature;BME280_humidity;BME280_pressure;Samples;Min_cycle;Max_cycle;Signal;HPM_P1;HPM_P2
2022/01/04 00:02:15;;;;;;;13.45;7.97;;;;;;;3.55;100.00;98536.45;1771169;81;21165;-85
2022/01/04 00:05:21;;;;;;;14.58;8.85;;;;;;;3.56;100.00;98541.67;1770730;81;21744;-85
2022/01/04 00:08:27;;;;;;;13.98;8.63;;;;;;;3.57;100.00;98535.75;1770122;81;21213;-86
2022/01/04 00:14:40;;;;;;;11.45;8.25;;;;;;;3.52;100.00;98534.92;1721031;81;21311;-85
2022/01/04 00:17:47;;;;;;;13.38;8.85;;;;;;;3.49;100.00;98533.10;1769850;81;21284;-85
2022/01/04 00:20:53;;;;;;;13.75;8.28;;;;;;;3.47;100.00;98543.23;1771421;81;21311;-85
2022/01/04 00:24:00;;;;;;;12.53;8.05;;;;;;;3.46;100.00;98536.14;1769879;81;21343;-86
2022/01/04 00:27:06;;;;;;;13.25;8.93;;;;;;;3.44;100.00;98540.38;1771994;81;21184;-85
2022/01/04 00:30:12;;;;;;;19.10;9.08;;;;;;;3.44;100.00;98542.24;1771402;81;21210;-85
2022/01/04 00:33:19;;;;;;;11.08;7.42;;;;;;;3.44;100.00;98542.24;1771489;81;21220;-85
2022/01/04 00:36:25;;;;;;;17.17;9.35;;;;;;;3.42;100.00;98543.75;1770259;81;21288;-85
2022/01/04 00:39:31;;;;;;;11.45;7.75;;;;;;;3.44;100.00;98547.65;1771262;81;21197;-85
2022/01/04 00:42:37;;;;;;;14.25;8.00;;;;;;;3.41;100.00;98550.17;1769867;81;21748;-85
2022/01/04 00:45:41;;;;;;;12.75;7.55;;;;;;;3.35;100.00;98547.34;1771000;81;21232;-85
2022/01/04 00:52:16;;;;;;;16.42;8.20;;;;;;;3.31;100.00;98548.19;1771458;81;21252;-85
2022/01/04 00:55:20;;;;;;;13.45;8.60;;;;;;;3.27;100.00;98554.44;1771334;81;21208;-85
2022/01/04 00:58:26;;;;;;;18.37;8.60;;;;;;;3.23;100.00;98555.79;1771371;81;21177;-85
2022/01/04 01:01:31;;;;;;;10.05;7.80;;;;;;;3.22;100.00;98555.46;1771298;81;21363;-85
2022/01/04 01:04:38;;;;;;;12.23;8.00;;;;;;;3.20;100.00;98552.10;1770616;81;21319;-85
2022/01/04 01:07:45;;;;;;;16.37;9.18;;;;;;;3.21;100.00;98559.19;1771420;81;21846;-85
2022/01/04 01:10:51;;;;;;;14.93;8.23;;;;;;;3.20;100.00;98561.56;1770008;81;21204;-85
2022/01/04 01:13:57;;;;;;;14.23;8.40;;;;;;;3.18;100.00;98570.33;1774776;80;21838;-85
2022/01/04 01:17:03;;;;;;;14.43;8.60;;;;;;;3.16;100.00;98572.88;1778715;80;21378;-85
2022/01/04 01:20:10;;;;;;;12.95;8.98;;;;;;;3.14;100.00;98574.38;1778470;80;21382;-85
2022/01/04 01:23:16;;;;;;;13.90;8.15;;;;;;;3.12;100.00;98575.07;1778416;80;21255;-85
2022/01/04 01:26:22;;;;;;;12.18;7.15;;;;;;;3.11;100.00;98581.50;1779330;80;21595;-85
2022/01/04 01:29:28;;;;;;;12.47;7.55;;;;;;;3.11;100.00;98586.06;1779534;80;21358;-85
2022/01/04 01:32:34;;;;;;;11.95;7.33;;;;;;;3.10;100.00;98586.53;1779487;80;21343;-85
2022/01/04 01:35:41;;;;;;;15.35;7.35;;;;;;;3.10;100.00;98590.59;1778210;80;21521;-85
2022/01/04 01:38:46;;;;;;;12.40;7.03;;;;;;;3.10;100.00;98596.50;1779814;80;21342;-85
2022/01/04 01:41:52;;;;;;;10.43;6.17;;;;;;;3.13;100.00;98598.37;1779530;80;21303;-86
2022/01/04 01:44:59;;;;;;;8.53;6.03;;;;;;;3.14;100.00;98601.40;1779561;80;21306;-84
2022/01/04 01:48:04;;;;;;;8.88;6.35;;;;;;;3.15;100.00;98608.99;1778297;80;21355;-84
2022/01/04 01:51:10;;;;;;;9.75;6.75;;;;;;;3.15;100.00;98613.05;1778040;80;21849;-85
2022/01/04 01:54:16;;;;;;;13.68;6.75;;;;;;;3.14;100.00;98612.20;1779692;80;21343;-85
2022/01/04 01:57:24;;;;;;;10.35;6.53;;;;;;;3.15;100.00;98621.15;1778198;80;21859;-85
2022/01/04 02:00:32;;;;;;;14.30;6.67;;;;;;;3.14;100.00;98623.02;1778299;80;21298;-85
2022/01/04 02:03:37;;;;;;;10.85;6.33;;;;;;;3.13;100.00;98627.24;1779498;80;21304;-85
2022/01/04 02:06:42;;;;;;;8.90;6.08;;;;;;;3.11;100.00;98632.83;1779174;80;21165;-85
2022/01/04 02:10:01;;;;;;;11.38;6.53;;;;;;;3.12;100.00;98637.21;1778286;80;21157;-86
2022/01/04 02:12:54;;;;;;;15.35;6.65;;;;;;;3.13;100.00;98636.70;1777863;80;21192;-85
2022/01/04 02:16:00;;;;;;;7.17;5.87;;;;;;;3.08;100.00;98648.02;1779988;80;21287;-85
2022/01/04 02:19:16;;;;;;;12.10;6.92;;;;;;;3.05;100.00;98646.48;1779447;80;21389;-85
2022/01/04 02:22:23;;;;;;;10.55;7.10;;;;;;;2.99;100.00;98641.77;1777988;80;21834;-85
2022/01/04 02:25:29;;;;;;;19.17;6.95;;;;;;;2.97;100.00;98652.41;1779604;80;21831;-85
2022/01/04 02:28:34;;;;;;;12.95;7.22;;;;;;;2.96;100.00;98654.75;1778287;80;21298;-85
2022/01/04 02:31:40;;;;;;;12.63;6.85;;;;;;;2.97;100.00;98648.36;1779499;80;21295;-85
2022/01/04 02:34:47;;;;;;;14.07;7.40;;;;;;;2.98;100.00;98652.74;1779531;80;21307;-85
2022/01/04 02:37:53;;;;;;;9.28;6.45;;;;;;;2.98;100.00;98656.80;1778553;80;21843;-85
2022/01/04 02:40:58;;;;;;;13.03;6.55;;;;;;;2.99;100.00;98662.53;1779550;80;21307;-85
2022/01/04 02:44:04;;;;;;;10.32;6.90;;;;;;;2.97;100.00;98653.77;1779678;80;21311;-85
2022/01/04 02:47:10;;;;;;;10.72;6.92;;;;;;;2.96;100.00;98659.64;1778537;80;21621;-85
2022/01/04 02:50:15;;;;;;;11.25;6.95;;;;;;;2.99;100.00;98663.88;1779534;80;21323;-85
2022/01/04 02:53:20;;;;;;;11.90;6.65;;;;;;;3.01;100.00;98669.94;1779735;80;21850;-85
2022/01/04 02:56:25;;;;;;;11.68;6.45;;;;;;;3.01;100.00;98669.94;1779676;80;21473;-85
2022/01/04 02:59:31;;;;;;;8.90;5.72;;;;;;;3.03;100.00;98667.94;1779656;80;21311;-85
2022/01/04 03:02:36;;;;;;;12.43;7.40;;;;;;;3.04;100.00;98666.92;1779526;80;21822;-85
2022/01/04 03:05:41;;;;;;;8.18;6.40;;;;;;;3.03;100.00;98670.64;1779356;80;21894;-86
2022/01/04 03:08:48;;;;;;;9.95;6.55;;;;;;;3.03;100.00;98678.74;1778646;80;21220;-85
2022/01/04 03:11:53;;;;;;;8.03;5.47;;;;;;;3.04;100.00;98677.72;1779559;80;21834;-84
2022/01/04 03:15:00;;;;;;;11.28;6.87;;;;;;;3.05;100.00;98680.75;1774212;79;21839;-85
2022/01/04 03:18:06;;;;;;;9.70;7.17;;;;;;;3.07;100.00;98688.20;1770860;81;21221;-86
2022/01/04 03:21:10;;;;;;;12.25;7.15;;;;;;;3.08;100.00;98696.64;1770413;81;21862;-85
2022/01/04 03:24:18;;;;;;;10.25;6.65;;;;;;;3.09;100.00;98698.32;1771480;81;21181;-84
2022/01/04 03:27:25;;;;;;;10.98;5.90;;;;;;;3.06;100.00;98699.52;1771234;81;21304;-85
2022/01/04 03:30:31;;;;;;;13.50;6.60;;;;;;;3.06;100.00;98715.73;1771422;81;21193;-84
2022/01/04 03:33:36;;;;;;;8.65;5.97;;;;;;;3.07;100.00;98709.30;1771574;81;21713;-85
2022/01/04 03:36:41;;;;;;;9.08;6.12;;;;;;;3.11;100.00;98715.73;1770799;81;21370;-85
2022/01/04 03:39:47;;;;;;;9.20;6.05;;;;;;;3.13;100.00;98719.10;1769866;81;21216;-85
2022/01/04 03:42:53;;;;;;;10.98;6.10;;;;;;;3.14;100.00;98720.27;1771266;81;21355;-85
2022/01/04 03:45:58;;;;;;;9.55;5.80;;;;;;;3.13;100.00;98728.56;1770958;81;21339;-85
2022/01/04 03:49:05;;;;;;;9.78;6.10;;;;;;;3.09;100.00;98728.04;1770659;81;21307;-86
2022/01/04 03:52:10;;;;;;;9.03;5.75;;;;;;;3.05;100.00;98734.78;1770565;81;21373;-86
2022/01/04 03:55:16;;;;;;;7.37;5.25;;;;;;;3.02;100.00;98736.48;1771506;81;21366;-86
2022/01/04 03:58:21;;;;;;;7.87;5.80;;;;;;;3.01;100.00;98746.45;1771147;81;21339;-86
2022/01/04 04:01:27;;;;;;;7.37;5.15;;;;;;;3.00;100.00;98750.14;1771247;81;21371;-86
2022/01/04 04:04:34;;;;;;;8.83;6.20;;;;;;;3.01;100.00;98755.03;1771259;81;21319;-85
2022/01/04 04:07:40;;;;;;;11.15;5.97;;;;;;;2.99;100.00;98757.06;1712684;83;21221;-85
2022/01/04 04:10:47;;;;;;;7.10;5.62;;;;;;;2.98;100.00;98772.44;1714867;83;22469;-85
2022/01/04 04:13:53;;;;;;;11.12;6.47;;;;;;;2.98;100.00;98766.19;1714131;83;21360;-85
2022/01/04 04:16:59;;;;;;;9.88;6.05;;;;;;;2.97;100.00;98773.95;1714572;83;21935;-85
2022/01/04 04:20:04;;;;;;;10.23;6.50;;;;;;;2.96;100.00;98766.84;1712946;83;21335;-85
2022/01/04 04:23:10;;;;;;;9.78;5.90;;;;;;;2.97;100.00;98772.61;1770171;81;21370;-85
2022/01/04 04:26:15;;;;;;;9.28;5.53;;;;;;;2.97;100.00;98780.20;1771477;81;21303;-85
2022/01/04 04:29:21;;;;;;;6.78;5.40;;;;;;;2.98;100.00;98779.19;1770629;81;21339;-85
2022/01/04 04:32:26;;;;;;;7.87;5.35;;;;;;;2.99;100.00;98787.63;1771096;81;21343;-84
2022/01/04 04:35:33;;;;;;;9.70;6.17;;;;;;;2.98;100.00;98789.99;1770016;81;21838;-86
2022/01/04 04:38:38;;;;;;;9.68;5.42;;;;;;;2.94;100.00;98793.19;1770029;81;21814;-86
2022/01/04 04:41:44;;;;;;;10.88;5.45;;;;;;;2.93;100.00;98799.60;1771361;81;21315;-87
2022/01/04 04:44:50;;;;;;;7.37;5.45;;;;;;;2.93;100.00;98803.14;1771420;81;21351;-85
2022/01/04 04:47:57;;;;;;;12.73;5.58;;;;;;;2.94;100.00;98805.34;1769834;81;21206;-86
2022/01/04 04:51:01;;;;;;;12.05;5.75;;;;;;;2.96;100.00;98806.84;1770060;81;21245;-86
2022/01/04 04:54:08;;;;;;;11.48;6.15;;;;;;;2.95;100.00;98809.72;1771354;81;21315;-87
2022/01/04 04:57:13;;;;;;;9.23;6.15;;;;;;;2.92;100.00;98817.67;1771541;81;21834;-87
2022/01/04 05:00:20;;;;;;;6.47;5.22;;;;;;;2.89;100.00;98821.19;1770496;81;21870;-86
2022/01/04 05:03:25;;;;;;;8.58;6.35;;;;;;;2.86;100.00;98832.31;1771327;81;21304;-86
2022/01/04 05:06:31;;;;;;;10.18;5.90;;;;;;;2.79;100.00;98834.33;1771312;81;21331;-85
2022/01/04 05:09:37;;;;;;;11.63;6.50;;;;;;;2.72;100.00;98831.91;1770024;81;21308;-86
2022/01/04 05:12:43;;;;;;;8.90;6.65;;;;;;;2.67;100.00;98839.66;1770102;81;21173;-85
2022/01/04 05:15:48;;;;;;;10.45;6.17;;;;;;;2.65;100.00;98842.19;1771530;81;21331;-86
2022/01/04 05:18:56;;;;;;;8.25;6.10;;;;;;;2.65;100.00;98848.94;1770686;80;21328;-85
2022/01/04 05:22:02;;;;;;;8.40;5.95;;;;;;;2.63;100.00;98852.29;1771456;81;21295;-85
2022/01/04 05:25:07;;;;;;;9.30;5.97;;;;;;;2.59;100.00;98853.14;1771478;81;21185;-85
2022/01/04 05:28:13;;;;;;;8.18;5.10;;;;;;;2.56;100.00;98853.45;1770022;81;21182;-85
2022/01/04 05:31:18;;;;;;;6.60;5.15;;;;;;;2.53;100.00;98873.50;1770009;81;21319;-85
2022/01/04 05:34:25;;;;;;;6.85;5.15;;;;;;;2.55;100.00;98869.31;1771582;81;21177;-85
2022/01/04 05:37:30;;;;;;;5.85;4.70;;;;;;;2.61;100.00;98877.27;1771153;81;21308;-85
2022/01/04 05:40:35;;;;;;;5.83;4.62;;;;;;;2.65;100.00;98879.98;1770731;81;21307;-85
2022/01/04 05:43:41;;;;;;;6.12;4.20;;;;;;;2.68;100.00;98888.63;1771311;81;21823;-86
2022/01/04 05:46:47;;;;;;;7.12;4.45;;;;;;;2.72;100.00;98888.62;1786114;79;21295;-85
2022/01/04 05:49:53;;;;;;;8.33;4.15;;;;;;;2.79;100.00;98891.53;1767059;79;21301;-85
2022/01/04 05:52:59;;;;;;;6.85;4.10;;;;;;;2.83;100.00;98896.96;1762711;81;21193;-85
2022/01/04 05:56:05;;;;;;;6.50;4.20;;;;;;;2.86;100.00;98904.72;1776983;79;21849;-86
2022/01/04 05:59:09;;;;;;;7.50;5.03;;;;;;;2.91;100.00;98904.23;1774137;79;21307;-87
2022/01/04 06:02:15;;;;;;;8.05;4.95;;;;;;;2.92;100.00;98908.66;1777896;79;21316;-86
2022/01/04 06:05:20;;;;;;;7.37;4.20;;;;;;;2.92;100.00;98928.41;1780454;79;21318;-86
2022/01/04 06:08:46;;;;;;;;;;;;;;;;;;;;;
2022/01/04 06:14:55;;;;;;;7.40;5.42;;;;;;;3.02;100.00;98943.14;1787931;79;21247;-84
2022/01/04 06:17:57;;;;;;;9.18;5.70;;;;;;;3.06;100.00;98945.86;1792407;79;21149;-79
2022/01/04 06:21:05;;;;;;;6.22;4.78;;;;;;;3.11;100.00;98945.38;1785907;79;21549;-79
2022/01/04 06:24:10;;;;;;;7.80;5.47;;;;;;;3.18;100.00;98944.55;1791849;79;21346;-85
2022/01/04 06:27:15;;;;;;;9.75;6.35;;;;;;;3.18;100.00;98947.25;1788058;79;21294;-78
2022/01/04 06:30:26;;;;;;;8.40;5.83;;;;;;;3.21;100.00;98954.20;1789879;78;21303;-85
2022/01/04 06:33:32;;;;;;;10.98;5.72;;;;;;;3.26;100.00;98950.50;1790397;79;21272;-78
2022/01/04 06:36:37;;;;;;;5.95;4.83;;;;;;;3.28;100.00;98961.48;1789906;79;21828;-84
2022/01/04 06:39:42;;;;;;;10.08;5.42;;;;;;;3.32;100.00;98971.47;1793108;78;21312;-77
2022/01/04 06:42:47;;;;;;;10.93;5.42;;;;;;;3.31;100.00;98973.33;1789867;79;21350;-85
2022/01/04 06:45:52;;;;;;;7.72;5.70;;;;;;;3.35;100.00;98973.01;1730160;82;21318;-85
2022/01/04 06:48:57;;;;;;;7.60;5.50;;;;;;;3.41;100.00;98980.46;1731479;81;21323;-83
2022/01/04 06:52:03;;;;;;;10.35;6.05;;;;;;;3.47;100.00;98982.50;1728781;81;21279;-85
2022/01/04 06:55:09;;;;;;;7.92;5.17;;;;;;;3.49;100.00;98983.20;1727980;81;21213;-85
2022/01/04 06:58:14;;;;;;;9.23;6.00;;;;;;;3.57;100.00;98981.34;1734810;82;21212;-85
2022/01/04 07:01:19;;;;;;;7.85;5.75;;;;;;;3.63;100.00;98986.63;1728411;82;21306;-85
2022/01/04 07:04:25;;;;;;;10.03;5.58;;;;;;;3.67;100.00;98985.77;1726695;82;21863;-86
2022/01/04 07:07:31;;;;;;;8.10;5.53;;;;;;;3.69;100.00;98999.48;1730645;82;21174;-86
2022/01/04 07:10:36;;;;;;;9.78;5.72;;;;;;;3.68;100.00;99003.20;1731540;82;23073;-79
2022/01/04 07:13:42;;;;;;;10.40;5.80;;;;;;;3.67;100.00;99005.58;1720259;82;21176;-78
2022/01/04 07:16:49;;;;;;;8.48;5.30;;;;;;;3.70;100.00;99006.58;1704976;82;21380;-85
2022/01/04 07:19:54;;;;;;;9.40;6.35;;;;;;;3.77;100.00;99016.25;1710992;83;21272;-85
2022/01/04 07:23:01;;;;;;;8.28;5.50;;;;;;;3.83;100.00;99024.55;1707809;83;21198;-84
2022/01/04 07:26:02;;;;;;;7.50;5.53;;;;;;;3.86;100.00;99024.73;1726413;81;21318;-79
2022/01/04 07:29:08;;;;;;;7.90;6.22;;;;;;;3.84;100.00;99028.09;1722545;82;22270;-79
2022/01/04 07:32:13;;;;;;;6.30;5.35;;;;;;;3.82;100.00;99025.56;1722656;82;21895;-79
2022/01/04 07:35:19;;;;;;;5.87;5.20;;;;;;;3.84;100.00;99028.94;1730173;80;21193;-79
2022/01/04 07:38:27;;;;;;;6.70;5.77;;;;;;;3.89;100.00;99025.73;1718404;82;22364;-78
2022/01/04 07:41:36;;;;;;;9.20;6.00;;;;;;;3.96;100.00;99026.78;1705122;83;21791;-78
2022/01/04 07:44:41;;;;;;;8.50;6.08;;;;;;;4.00;100.00;99032.69;1730662;80;21278;-79
2022/01/04 07:47:48;;;;;;;8.73;5.65;;;;;;;4.02;100.00;99030.69;1723882;81;21700;-77
2022/01/04 07:50:55;;;;;;;9.98;6.45;;;;;;;4.07;100.00;99036.44;1720986;82;21196;-78
2022/01/04 07:54:00;;;;;;;8.50;5.85;;;;;;;4.12;100.00;99037.30;1723114;82;21161;-79
2022/01/04 07:57:05;;;;;;;11.80;6.70;;;;;;;4.20;100.00;99046.28;1709108;82;21168;-78
2022/01/04 08:00:12;;;;;;;8.75;5.78;;;;;;;4.27;100.00;99048.65;1706291;83;21555;-78
2022/01/04 08:03:17;;;;;;;9.40;6.15;;;;;;;4.38;100.00;99056.14;1718029;81;21852;-77
2022/01/04 08:06:24;;;;;;;11.70;5.83;;;;;;;4.46;100.00;99058.83;1719074;81;21556;-83
2022/01/04 08:09:31;;;;;;;10.72;6.78;;;;;;;4.55;100.00;99049.19;1715479;81;21817;-84
2022/01/04 08:12:37;;;;;;;8.75;6.83;;;;;;;4.69;100.00;99043.61;1707126;81;21209;-84
2022/01/04 08:15:42;;;;;;;9.10;5.62;;;;;;;4.78;100.00;99046.66;1708884;82;21192;-84
2022/01/04 08:18:48;;;;;;;8.00;5.90;;;;;;;4.85;100.00;99054.45;1709827;82;21193;-83
2022/01/04 08:21:55;;;;;;;8.20;6.28;;;;;;;4.81;100.00;99050.39;1708008;82;21842;-84
2022/01/04 08:25:02;;;;;;;10.00;6.17;;;;;;;4.86;100.00;99053.43;1708379;82;22230;-85
2022/01/04 08:28:09;;;;;;;8.73;6.35;;;;;;;4.94;99.84;99053.07;1707718;82;21260;-84
2022/01/04 08:31:14;;;;;;;11.53;6.58;;;;;;;4.94;99.12;99050.36;1707242;82;21332;-85
2022/01/04 08:34:21;;;;;;;11.43;7.78;;;;;;;4.94;98.51;99049.00;1728930;81;21290;-86
2022/01/04 08:37:27;;;;;;;11.68;7.78;;;;;;;4.98;98.66;99041.72;1728912;81;21608;-85
2022/01/04 08:40:32;;;;;;;13.05;8.40;;;;;;;5.16;98.65;99055.59;1732140;81;21636;-85
2022/01/04 08:43:39;;;;;;;13.25;7.50;;;;;;;5.21;97.92;99059.47;1726628;81;21172;-83
2022/01/04 08:46:45;;;;;;;11.28;7.47;;;;;;;5.26;97.78;99059.80;1767972;79;21902;-82
2022/01/04 08:49:50;;;;;;;11.93;7.92;;;;;;;5.29;97.17;99069.47;1729389;81;21303;-82
2022/01/04 08:52:56;;;;;;;13.53;7.40;;;;;;;5.24;96.59;99073.20;1772599;79;21730;-83
2022/01/04 08:56:02;;;;;;;17.02;9.05;;;;;;;5.23;96.59;99075.08;1767931;79;21919;-83
2022/01/04 08:59:10;;;;;;;15.80;10.55;;;;;;;5.26;96.52;99072.52;1766846;79;21801;-84
2022/01/04 09:02:22;;;;;;;10.70;7.50;;;;;;;5.32;96.42;99069.98;1768426;79;21553;-84
2022/01/04 09:05:31;;;;;;;13.62;7.72;;;;;;;5.42;95.94;99075.20;1771027;79;21375;-85
2022/01/04 09:08:55;;;;;;;10.25;6.95;;;;;;;5.45;95.16;99080.77;1771544;79;21790;-82
2022/01/04 09:11:59;;;;;;;15.08;8.58;;;;;;;5.46;94.63;99083.34;1771473;79;21171;-82
2022/01/04 09:21:41;;;;;;;16.97;10.72;;;;;;;5.57;93.93;99099.74;1745823;80;21893;-82
2022/01/04 09:24:46;;;;;;;16.12;9.95;;;;;;;5.54;93.67;99092.78;1751261;80;21911;-77
2022/01/04 09:27:52;;;;;;;13.20;8.53;;;;;;;5.54;93.70;99099.56;1737398;80;21712;-78
2022/01/04 09:30:57;;;;;;;12.90;8.55;;;;;;;5.51;93.63;99102.64;1699783;82;21919;-77
2022/01/04 09:34:04;;;;;;;10.35;7.33;;;;;;;5.36;93.68;99098.45;1700129;83;21200;-77
2022/01/04 09:37:09;;;;;;;12.73;8.20;;;;;;;5.21;94.30;99093.87;1682189;83;21905;-82
2022/01/04 09:40:15;;;;;;;10.60;7.28;;;;;;;5.05;95.09;99101.02;1697226;83;21303;-77
2022/01/04 09:43:21;;;;;;;9.28;7.45;;;;;;;4.95;96.05;99094.92;1665553;84;21634;-78
2022/01/04 09:46:27;;;;;;;9.70;7.10;;;;;;;4.87;96.59;99101.18;1701600;82;21312;-78
2022/01/04 09:49:33;;;;;;;10.65;6.40;;;;;;;4.85;97.00;99105.09;1699394;83;21197;-77
2022/01/04 09:52:39;;;;;;;8.95;6.50;;;;;;;4.88;97.21;99108.28;1699865;83;21705;-77
2022/01/04 09:55:45;;;;;;;8.18;6.40;;;;;;;4.88;97.11;99109.64;1701422;83;21301;-78
2022/01/04 09:58:51;;;;;;;11.28;6.65;;;;;;;4.88;97.20;99117.77;1683546;83;21405;-78
2022/01/04 10:02:02;;;;;;;9.70;7.17;;;;;;;4.82;97.24;99108.97;1694320;83;21212;-83
2022/01/04 10:05:29;;;;;;;8.08;6.08;;;;;;;4.78;97.31;99111.67;1693826;83;21310;-83
2022/01/04 10:08:36;;;;;;;10.13;6.85;;;;;;;4.75;97.58;99110.67;1667639;84;21599;-84
2022/01/04 10:11:50;;;;;;;10.05;6.92;;;;;;;4.76;97.81;99115.58;1692308;83;21264;-84
2022/01/04 10:14:57;;;;;;;9.93;7.05;;;;;;;4.80;98.12;99118.30;1715960;81;21742;-84
2022/01/04 10:18:03;;;;;;;8.33;6.45;;;;;;;4.85;98.29;99111.35;1724505;82;22054;-83
2022/01/04 10:21:13;;;;;;;8.28;6.28;;;;;;;4.91;98.14;99107.12;1721018;82;21279;-83
2022/01/04 10:24:19;;;;;;;17.67;7.28;;;;;;;4.87;97.98;99109.31;1729027;82;21201;-83
2022/01/04 10:27:41;;;;;;;8.75;6.60;;;;;;;4.92;98.27;99110.67;1722389;81;21205;-84
2022/01/04 10:30:47;;;;;;;10.00;7.17;;;;;;;5.01;98.32;99112.36;1733055;82;21327;-83
2022/01/04 10:33:54;;;;;;;8.93;6.70;;;;;;;5.10;98.24;99110.83;1728997;82;21323;-83
2022/01/04 10:36:59;;;;;;;7.65;5.83;;;;;;;5.19;98.09;99105.41;1731053;82;21298;-77
2022/01/04 10:40:17;;;;;;;9.20;6.70;;;;;;;5.33;98.02;99108.78;1729505;82;21343;-77
2022/01/04 10:43:24;;;;;;;8.25;5.55;;;;;;;5.37;97.09;99115.05;1729722;82;21560;-79
2022/01/04 10:46:53;;;;;;;7.75;5.70;;;;;;;5.31;96.40;99119.77;1717464;82;21328;-78
2022/01/04 10:49:54;;;;;;;14.03;6.42;;;;;;;5.25;96.19;99127.25;1723905;82;21651;-79
2022/01/04 10:53:02;;;;;;;7.90;6.03;;;;;;;5.22;96.30;99119.48;1724150;82;21274;-78
2022/01/04 10:56:13;;;;;;;8.75;6.10;;;;;;;5.30;96.18;99124.02;1732920;82;21595;-78
2022/01/04 10:59:19;;;;;;;6.35;5.22;;;;;;;5.33;95.89;99121.83;1733467;82;21319;-78
2022/01/04 11:02:40;;;;;;;7.30;5.92;;;;;;;5.39;95.70;99122.48;1714247;82;21789;-78
2022/01/04 11:05:44;;;;;;;10.05;6.75;;;;;;;5.36;95.26;99121.97;1720905;82;21508;-79
2022/01/04 11:08:49;;;;;;;11.40;6.75;;;;;;;5.36;95.10;99138.24;1723733;82;21302;-78
2022/01/04 11:11:57;;;;;;;6.40;5.08;;;;;;;5.33;95.03;99136.73;1709525;82;21225;-79
2022/01/04 11:15:02;;;;;;;9.58;6.03;;;;;;;5.34;94.95;99138.42;1728055;82;21295;-78
2022/01/04 11:18:08;;;;;;;8.08;6.50;;;;;;;5.28;94.79;99147.77;1777997;79;21766;-79
2022/01/04 11:21:13;;;;;;;14.63;8.05;;;;;;;5.22;94.95;99146.59;1774226;79;21862;-78
2022/01/04 11:24:23;;;;;;;8.33;5.85;;;;;;;5.23;95.16;99145.56;1771197;80;21133;-85
2022/01/04 11:27:30;;;;;;;9.28;5.87;;;;;;;5.30;95.51;99150.62;1774921;80;21288;-84
2022/01/04 11:31:03;;;;;;;12.47;6.85;;;;;;;5.38;95.28;99156.05;1769937;80;21771;-85
2022/01/04 11:34:23;;;;;;;15.15;6.17;;;;;;;5.45;95.00;99163.49;1775584;80;21318;-84
2022/01/04 11:37:29;;;;;;;7.67;5.75;;;;;;;5.47;94.39;99177.23;1768011;80;21185;-84
2022/01/04 11:40:43;;;;;;;7.22;5.80;;;;;;;5.40;93.95;99178.92;1771192;80;21269;-84
2022/01/04 11:43:50;;;;;;;10.80;6.28;;;;;;;5.33;93.86;99182.84;1787149;80;21177;-84
2022/01/04 11:47:13;;;;;;;9.70;6.10;;;;;;;5.29;93.96;99185.55;1767556;80;21200;-84
2022/01/04 11:50:25;;;;;;;7.65;5.67;;;;;;;5.28;94.12;99189.80;1768841;80;21897;-84
2022/01/04 11:53:31;;;;;;;7.47;5.58;;;;;;;5.34;94.09;99189.10;1765322;80;21787;-82
2022/01/04 11:56:58;;;;;;;6.83;4.75;;;;;;;5.37;93.99;99194.20;1766549;78;21335;-85
2022/01/04 12:00:07;;;;;;;6.35;4.65;;;;;;;5.37;93.75;99196.91;1773143;80;21754;-84
2022/01/04 12:03:21;;;;;;;14.60;5.37;;;;;;;5.36;93.68;99201.48;1768733;80;21161;-84
2022/01/04 12:06:28;;;;;;;7.50;4.75;;;;;;;5.37;93.75;99200.98;1765911;80;21171;-84
2022/01/04 12:09:35;;;;;;;9.98;5.55;;;;;;;5.37;93.58;99208.59;1765991;80;21204;-85
2022/01/04 12:13:04;;;;;;;6.30;4.90;;;;;;;5.37;93.51;99209.95;1777121;80;21790;-82
2022/01/04 12:16:14;;;;;;;11.75;5.90;;;;;;;5.41;93.36;99209.59;1760435;80;21764;-85
2022/01/04 12:19:22;;;;;;;6.55;5.22;;;;;;;5.43;93.30;99210.29;1734523;82;21509;-85
2022/01/04 12:22:40;;;;;;;9.40;5.90;;;;;;;5.46;92.94;99216.71;1774756;80;21883;-84
2022/01/04 12:25:47;;;;;;;9.43;6.00;;;;;;;5.46;92.87;99219.42;1772537;80;21236;-78
2022/01/04 12:29:07;;;;;;;10.05;5.30;;;;;;;5.48;92.60;99220.96;1768158;80;21210;-78
2022/01/04 12:32:15;;;;;;;6.47;4.92;;;;;;;5.48;92.32;99234.52;1765142;80;21251;-78
2022/01/04 12:35:20;;;;;;;8.20;5.58;;;;;;;5.47;92.18;99234.70;1758566;80;21299;-78
2022/01/04 12:38:25;;;;;;;8.18;5.20;;;;;;;5.46;92.03;99237.05;1769270;80;21272;-77
2022/01/04 12:41:24;;;;;;;9.35;5.78;;;;;;;5.41;91.86;99237.59;1777242;80;21307;-78
2022/01/04 12:44:32;;;;;;;8.00;5.30;;;;;;;5.37;91.92;99248.43;1775790;80;21833;-78
2022/01/04 12:47:37;;;;;;;8.80;5.28;;;;;;;5.34;91.97;99251.47;1783244;80;21154;-78
2022/01/04 12:50:42;;;;;;;9.78;5.67;;;;;;;5.29;92.00;99253.84;1779232;80;21189;-78
2022/01/04 12:53:47;;;;;;;9.13;6.65;;;;;;;5.29;92.12;99247.91;1779475;80;21173;-78
2022/01/04 12:56:59;;;;;;;7.75;5.55;;;;;;;5.30;91.93;99246.88;1775647;80;21331;-78
2022/01/04 13:00:05;;;;;;;14.85;5.75;;;;;;;5.29;91.83;99251.12;1770467;80;21325;-77
2022/01/04 13:03:11;;;;;;;7.97;5.15;;;;;;;5.26;91.79;99259.59;1778949;80;21826;-77
2022/01/04 13:06:16;;;;;;;7.80;5.80;;;;;;;5.22;92.02;99261.81;1777331;80;21288;-77
2022/01/04 13:09:29;;;;;;;7.58;5.33;;;;;;;5.18;92.21;99266.38;1756785;80;21279;-77
2022/01/04 13:12:39;;;;;;;8.25;5.65;;;;;;;5.13;92.56;99260.10;1773320;80;21178;-77
2022/01/04 13:15:44;;;;;;;10.77;5.83;;;;;;;5.04;92.90;99266.02;1770452;80;21362;-77
2022/01/04 13:18:49;;;;;;;11.90;6.78;;;;;;;5.00;93.31;99276.00;1766634;80;21554;-77
2022/01/04 13:22:14;;;;;;;7.65;5.50;;;;;;;4.99;93.67;99272.95;1772249;80;21845;-78
2022/01/04 13:25:16;;;;;;;9.65;5.22;;;;;;;4.94;93.83;99276.63;1781039;80;21283;-84
2022/01/04 13:28:21;;;;;;;8.05;5.72;;;;;;;4.88;94.09;99283.06;1775588;80;21244;-84
2022/01/04 13:31:27;;;;;;;8.30;5.85;;;;;;;4.82;94.43;99287.79;1790307;80;21312;-78
2022/01/04 13:34:33;;;;;;;9.50;6.17;;;;;;;4.73;94.84;99294.70;1767521;80;21246;-77
2022/01/04 13:37:38;;;;;;;9.98;5.75;;;;;;;4.63;95.36;99296.70;1768426;80;21117;-84
2022/01/04 13:40:44;;;;;;;9.95;4.78;;;;;;;4.57;95.83;99307.17;1771034;80;21214;-77
2022/01/04 13:43:49;;;;;;;14.20;6.17;;;;;;;4.52;96.11;99312.73;1771985;80;21173;-78
2022/01/04 13:46:56;;;;;;;12.55;6.15;;;;;;;4.48;96.45;99321.69;1768630;80;21304;-84
2022/01/04 13:50:01;;;;;;;11.88;5.75;;;;;;;4.47;96.94;99314.58;1783456;80;21260;-78
2022/01/04 13:53:12;;;;;;;10.00;6.17;;;;;;;4.43;97.18;99324.03;1763777;81;21282;-84
2022/01/04 13:56:25;;;;;;;19.00;5.55;;;;;;;4.41;97.40;99330.59;1776308;80;21264;-77
2022/01/04 13:59:30;;;;;;;10.15;6.17;;;;;;;4.34;97.62;99332.61;1769578;80;21277;-84
2022/01/04 14:02:36;;;;;;;13.93;6.05;;;;;;;4.29;97.91;99336.30;1783494;80;21189;-84
2022/01/04 14:05:43;;;;;;;13.88;6.42;;;;;;;4.28;98.16;99334.61;1779789;79;21658;-78
2022/01/04 14:08:57;;;;;;;9.88;6.47;;;;;;;4.25;98.42;99340.84;1763930;80;21901;-77
2022/01/04 14:12:13;;;;;;;9.90;5.60;;;;;;;4.22;98.59;99349.27;1787684;80;21193;-77
2022/01/04 14:15:20;;;;;;;12.90;6.00;;;;;;;4.18;98.84;99354.14;1788224;80;21263;-77
2022/01/04 14:18:26;;;;;;;12.82;6.05;;;;;;;4.15;99.07;99360.40;1764960;79;21334;-84
2022/01/04 14:21:50;;;;;;;10.58;5.97;;;;;;;4.08;99.33;99370.98;1777890;80;21771;-85
2022/01/04 14:25:00;;;;;;;13.35;5.85;;;;;;;4.03;99.65;99365.20;1774690;80;21711;-85
2022/01/04 14:28:04;;;;;;;13.53;6.08;;;;;;;3.94;99.82;99368.34;1760202;81;21307;-78
2022/01/04 14:31:09;;;;;;;7.40;5.72;;;;;;;3.90;100.00;99370.16;1761861;80;21760;-78
2022/01/04 14:34:15;;;;;;;7.53;5.15;;;;;;;3.89;100.00;99376.59;1760867;80;21748;-83
2022/01/04 14:37:22;;;;;;;8.05;5.47;;;;;;;3.87;100.00;99373.20;1779291;80;21304;-85
2022/01/04 14:40:29;;;;;;;18.05;5.90;;;;;;;3.87;100.00;99389.44;1773881;80;21233;-78
2022/01/04 14:43:33;;;;;;;7.08;4.78;;;;;;;3.89;100.00;99390.11;1786941;80;21952;-85
2022/01/04 14:46:38;;;;;;;13.70;5.92;;;;;;;3.91;100.00;99393.53;1760576;81;21208;-78
2022/01/04 14:49:44;;;;;;;10.00;6.62;;;;;;;3.90;100.00;99395.36;1760859;81;21318;-84
2022/01/04 14:52:51;;;;;;;8.98;6.05;;;;;;;3.88;100.00;99402.80;1760934;81;21269;-85
2022/01/04 14:55:57;;;;;;;9.58;6.60;;;;;;;3.86;100.00;99408.88;1761390;81;21313;-84
2022/01/04 14:59:04;;;;;;;15.55;6.15;;;;;;;3.82;100.00;99406.98;1760415;81;21242;-85